Time;durP1;ratioP1;P1;durP2;ratioP2;P2;SDS_P1;SDS_P2;PMS_P1;PMS_P2;Temp;Humidity;BMP_temperature;BMP_pressure;BME280_temperature;BME280_humidity;BME280_pressure;Samples;Min_cycle;Max_cycle;Signal;HPM_P1;HPM_P2
2022/04/05 00:00:09;;;;;;;;;;;;;;;;;;1044581;28;2103;-68
2022/04/05 00:00:57;;;;;;;;;;;;;;;;;;1045136;28;3785;-68
2022/04/05 00:01:28;;;;;;;;;;;;;;;;;;1042768;28;2457;-67
2022/04/05 00:02:05;;;;;;;;;;;;;;;;;;1044364;28;3810;-67
2022/04/05 00:02:35;;;;;;;;;;;;;;;;;;1047124;28;2864;-68
2022/04/05 00:03:05;;;;;;;;;;;;;;;;;;1050117;28;3762;-69
2022/04/05 00:03:36;;;;;;;;;;;;;;;;;;1049591;28;1399;-69
2022/04/05 00:04:06;;;;;;;;;;;;;;;;;;1049280;28;3824;-68
2022/04/05 00:04:36;;;;;;;;;;;;;;;;;;1044491;28;2761;-69
2022/04/05 00:05:07;;;;;;;;;;;;;;;;;;1043733;28;3750;-69
2022/04/05 00:05:51;;;;;;;;;;;;;;;;;;1049940;28;3886;-68
2022/04/05 00:06:29;;;;;;;;;;;;;;;;;;1049704;28;2886;-68
2022/04/05 00:07:06;;;;;;;;;;;;;;;;;;1042825;28;3824;-67
2022/04/05 00:07:36;;;;;;;;;;;;;;;;;;1043992;28;1909;-67
2022/04/05 00:08:06;;;;;;;;;;;;;;;;;;1044129;28;3799;-68
2022/04/05 00:08:36;;;;;;;;;;;;;;;;;;1045641;28;2753;-67
2022/04/05 00:09:07;;;;;;;;;;;;;;;;;;1051190;28;3788;-69
2022/04/05 00:09:43;;;;;;;;;;;;;;;;;;1053300;28;1838;-69
2022/04/05 00:10:21;;;;;;;;;;;;;;;;;;1047644;28;3929;-68
2022/04/05 00:10:58;;;;;;;;;;;;;;;;;;1046189;28;3774;-68
2022/04/05 00:11:28;;;;;;;;;;;;;;;;;;1048941;28;2240;-70
2022/04/05 00:11:58;;;;;;;;;;;;;;;;;;1047513;28;3796;-68
2022/04/05 00:12:28;;;;;;;;;;;;;;;;;;1048289;28;2791;-69
2022/04/05 00:12:59;;;;;;;;;;;;;;;;;;1047783;28;4046;-69
2022/04/05 00:13:29;;;;;;;;;;;;;;;;;;1049162;28;1347;-68
2022/04/05 00:14:00;;;;;;;;;;;;;;;;;;1049436;28;3764;-68
2022/04/05 00:14:30;;;;;;;;;;;;;;;;;;1048416;28;3394;-69
2022/04/05 00:15:01;;;;;;;;;;;;;;;;;;1048513;28;3812;-68
2022/04/05 00:15:32;;;;;;;;;;;;;;;;;;1048539;28;2286;-68
2022/04/05 00:16:02;;;;;;;;;;;;;;;;;;1048040;28;3908;-68
2022/04/05 00:16:32;;;;;;;;;;;;;;;;;;1048705;28;2393;-68
2022/04/05 00:17:03;;;;;;;;;;;;;;;;;;1046367;28;3797;-69
2022/04/05 00:17:33;;;;;;;;;;;;;;;;;;1048520;28;2664;-67
2022/04/05 00:18:03;;;;;;;;;;;;;;;;;;1048411;28;3796;-69
2022/04/05 00:18:34;;;;;;;;;;;;;;;;;;1049047;28;2252;-69
2022/04/05 00:19:04;;;;;;;;;;;;;;;;;;1047579;28;3777;-69
2022/04/05 00:19:34;;;;;;;;;;;;;;;;;;1049705;28;2421;-68
2022/04/05 00:20:05;;;;;;;;;;;;;;;;;;1048566;28;3983;-68
2022/04/05 00:20:37;;;;;;;;;;;;;;;;;;1048950;28;3273;-68
2022/04/05 00:21:07;;;;;;;;;;;;;;;;;;1047938;28;3821;-69
2022/04/05 00:21:37;;;;;;;;;;;;;;;;;;1048203;28;2759;-68
2022/04/05 00:22:08;;;;;;;;;;;;;;;;;;1049676;28;3678;-70
2022/04/05 00:22:38;;;;;;;;;;;;;;;;;;1047061;28;3835;-69
2022/04/05 00:23:08;;;;;;;;;;;;;;;;;;1049342;28;2579;-69
2022/04/05 00:23:38;;;;;;;;;;;;;;;;;;1048595;28;3910;-68
2022/04/05 00:24:09;;;;;;;;;;;;;;;;;;1048821;28;2634;-68
2022/04/05 00:24:39;;;;;;;;;;;;;;;;;;1052095;28;3915;-68
2022/04/05 00:25:09;;;;;;;;;;;;;;;;;;1049595;28;2444;-67
2022/04/05 00:25:40;;;;;;;;;;;;;;;;;;1049376;28;3888;-67
2022/04/05 00:26:10;;;;;;;;;;;;;;;;;;1050284;28;1595;-67
2022/04/05 00:26:40;;;;;;;;;;;;;;;;;;1050891;28;3895;-69
2022/04/05 00:27:10;;;;;;;;;;;;;;;;;;1047570;28;2626;-67
2022/04/05 00:27:41;;;;;;;;;;;;;;;;;;1052221;28;3821;-70
2022/04/05 00:28:11;;;;;;;;;;;;;;;;;;1050977;28;2703;-69
2022/04/05 00:28:41;;;;;;;;;;;;;;;;;;1048085;28;5484;-68
2022/04/05 00:29:11;;;;;;;;;;;;;;;;;;1049125;28;2322;-68
2022/04/05 00:29:42;;;;;;;;;;;;;;;;;;1049017;28;3791;-69
2022/04/05 00:30:12;;;;;;;;;;;;;;;;;;1049727;28;2116;-70
2022/04/05 00:30:42;;;;;;;;;;;;;;;;;;1049491;28;3958;-68
2022/04/05 00:31:13;;;;;;;;;;;;;;;;;;1050693;28;2157;-69
2022/04/05 00:31:43;;;;;;;;;;;;;;;;;;1048169;28;3841;-69
2022/04/05 00:32:13;;;;;;;;;;;;;;;;;;1048048;28;2811;-70
2022/04/05 00:32:44;;;;;;;;;;;;;;;;;;1049627;28;3777;-69
2022/04/05 00:33:14;;;;;;;;;;;;;;;;;;1050283;28;1976;-69
2022/04/05 00:33:44;;;;;;;;;;;;;;;;;;1050320;28;3774;-68
2022/04/05 00:34:15;;;;;;;;;;;;;;;;;;1050857;28;1588;-68
2022/04/05 00:34:45;;;;;;;;;;;;;;;;;;1049768;28;3811;-70
2022/04/05 00:35:15;;;;;;;;;;;;;;;;;;1050520;28;1601;-68
2022/04/05 00:35:45;;;;;;;;;;;;;;;;;;1050519;28;3769;-68
2022/04/05 00:36:16;;;;;;;;;;;;;;;;;;1048974;28;1996;-67
2022/04/05 00:36:46;;;;;;;;;;;;;;;;;;1046835;28;3812;-69
2022/04/05 00:37:16;;;;;;;;;;;;;;;;;;1045156;28;3499;-69
2022/04/05 00:37:46;;;;;;;;;;;;;;;;;;1046294;28;4054;-70
2022/04/05 00:38:17;;;;;;;;;;;;;;;;;;1045539;28;2785;-68
2022/04/05 00:38:47;;;;;;;;;;;;;;;;;;1046413;28;3873;-68
2022/04/05 00:39:17;;;;;;;;;;;;;;;;;;1048343;28;3197;-68
2022/04/05 00:39:50;;;;;;;;;;;;;;;;;;1049693;28;3870;-69
2022/04/05 00:40:20;;;;;;;;;;;;;;;;;;1049682;28;2720;-68
2022/04/05 00:40:50;;;;;;;;;;;;;;;;;;1049877;28;3794;-68
2022/04/05 00:41:21;;;;;;;;;;;;;;;;;;1049442;28;2257;-68
2022/04/05 00:41:51;;;;;;;;;;;;;;;;;;1049632;28;3818;-69
2022/04/05 00:42:22;;;;;;;;;;;;;;;;;;1049159;28;2535;-69
2022/04/05 00:42:52;;;;;;;;;;;;;;;;;;1047723;28;3775;-68
2022/04/05 00:43:22;;;;;;;;;;;;;;;;;;1050138;28;2713;-69
2022/04/05 00:43:52;;;;;;;;;;;;;;;;;;1047170;28;3769;-68
2022/04/05 00:44:23;;;;;;;;;;;;;;;;;;1049481;28;2784;-69
2022/04/05 00:45:00;;;;;;;;;;;;;;;;;;1049855;28;3765;-69
2022/04/05 00:45:30;;;;;;;;;;;;;;;;;;1049435;28;2585;-68
2022/04/05 00:46:00;;;;;;;;;;;;;;;;;;1050967;28;3772;-67
2022/04/05 00:46:31;;;;;;;;;;;;;;;;;;1048363;28;2802;-70
2022/04/05 00:47:12;;;;;;;;;;;;;;;;;;1048932;28;3776;-69
2022/04/05 00:47:46;;;;;;;;;;;;;;;;;;1046789;28;3889;-70
2022/04/05 00:48:32;;;;;;;;;;;;;;;;;;1048447;28;2924;-69
2022/04/05 00:49:02;;;;;;;;;;;;;;;;;;1039942;28;3826;-68
2022/04/05 00:49:33;;;;;;;;;;;;;;;;;;1045143;28;3077;-67
2022/04/05 00:50:05;;;;;;;;;;;;;;;;;;1045618;28;3825;-68
2022/04/05 00:50:38;;;;;;;;;;;;;;;;;;1047238;28;1691;-68
2022/04/05 00:51:08;;;;;;;;;;;;;;;;;;1049421;28;3658;-68
2022/04/05 00:51:38;;;;;;;;;;;;;;;;;;1049221;28;3825;-71
2022/04/05 00:52:08;;;;;;;;;;;;;;;;;;1049906;28;1418;-68
2022/04/05 00:52:39;;;;;;;;;;;;;;;;;;1048539;28;3983;-69
2022/04/05 00:53:09;;;;;;;;;;;;;;;;;;1049064;28;2497;-69
2022/04/05 00:53:41;;;;;;;;;;;;;;;;;;1050401;28;4035;-69
2022/04/05 00:54:12;;;;;;;;;;;;;;;;;;1049480;28;1412;-69
2022/04/05 00:54:43;;;;;;;;;;;;;;;;;;1049411;28;3840;-68
2022/04/05 00:55:17;;;;;;;;;;;;;;;;;;1048872;28;2380;-68
2022/04/05 00:55:48;;;;;;;;;;;;;;;;;;1048583;28;3795;-68
2022/04/05 00:56:19;;;;;;;;;;;;;;;;;;1050033;28;2691;-69
2022/04/05 00:56:52;;;;;;;;;;;;;;;;;;1048337;28;3834;-69
2022/04/05 00:57:23;;;;;;;;;;;;;;;;;;1047055;28;2444;-69
2022/04/05 00:57:54;;;;;;;;;;;;;;;;;;1049718;28;3902;-68
2022/04/05 00:58:25;;;;;;;;;;;;;;;;;;1048905;28;1911;-67
2022/04/05 00:58:57;;;;;;;;;;;;;;;;;;1047348;28;4095;-68
2022/04/05 00:59:28;;;;;;;;;;;;;;;;;;1048422;28;2889;-68
2022/04/05 01:00:01;;;;;;;;;;;;;;;;;;1047699;28;4648;-70
2022/04/05 01:00:39;;;;;;;;;;;;;;;;;;1049787;28;4001;-67
2022/04/05 01:01:15;;;;;;;;;;;;;;;;;;1054743;28;1699;-68
2022/04/05 01:01:45;;;;;;;;;;;;;;;;;;1049519;28;3865;-69
2022/04/05 01:02:19;;;;;;;;;;;;;;;;;;1049596;28;2474;-69
2022/04/05 01:02:50;;;;;;;;;;;;;;;;;;1047670;28;3806;-69
2022/04/05 01:03:20;;;;;;;;;;;;;;;;;;1049776;28;1224;-68
2022/04/05 01:03:51;;;;;;;;;;;;;;;;;;1048752;28;3932;-69
2022/04/05 01:04:22;;;;;;;;;;;;;;;;;;1049427;28;2576;-69
2022/04/05 01:04:52;;;;;;;;;;;;;;;;;;1048136;28;3797;-69
2022/04/05 01:05:23;;;;;;;;;;;;;;;;;;1051052;28;1691;-69
2022/04/05 01:05:53;;;;;;;;;;;;;;;;;;1049464;28;3794;-68
2022/04/05 01:06:29;;;;;;;;;;;;;;;;;;1049506;28;2832;-68
2022/04/05 01:07:02;;;;;;;;;;;;;;;;;;1049698;28;4218;-69
2022/04/05 01:07:33;;;;;;;;;;;;;;;;;;1049983;28;3281;-68
2022/04/05 01:08:04;;;;;;;;;;;;;;;;;;1048750;28;3763;-69
2022/04/05 01:08:34;;;;;;;;;;;;;;;;;;1050508;28;2815;-67
2022/04/05 01:09:08;;;;;;;;;;;;;;;;;;1049744;28;3787;-68
2022/04/05 01:09:39;;;;;;;;;;;;;;;;;;1049183;28;3974;-68
2022/04/05 01:10:16;;;;;;;;;;;;;;;;;;1049217;28;2258;-69
2022/04/05 01:10:53;;;;;;;;;;;;;;;;;;1047519;28;3956;-67
2022/04/05 01:11:30;;;;;;;;;;;;;;;;;;1050071;28;2660;-67
2022/04/05 01:12:00;;;;;;;;;;;;;;;;;;1048323;28;3948;-70
2022/04/05 01:12:31;;;;;;;;;;;;;;;;;;1050039;28;2496;-67
2022/04/05 01:13:01;;;;;;;;;;;;;;;;;;1049867;28;3876;-69
2022/04/05 01:13:32;;;;;;;;;;;;;;;;;;1050563;28;1699;-68
2022/04/05 01:14:03;;;;;;;;;;;;;;;;;;1048799;28;3766;-70
2022/04/05 01:14:33;;;;;;;;;;;;;;;;;;1049587;28;1660;-68
2022/04/05 01:15:04;;;;;;;;;;;;;;;;;;1048477;28;3919;-68
2022/04/05 01:15:34;;;;;;;;;;;;;;;;;;1049429;28;2367;-70
2022/04/05 01:16:04;;;;;;;;;;;;;;;;;;1050075;28;3869;-68
2022/04/05 01:16:38;;;;;;;;;;;;;;;;;;1048416;28;2690;-68
2022/04/05 01:17:09;;;;;;;;;;;;;;;;;;1047627;28;3755;-68
2022/04/05 01:17:39;;;;;;;;;;;;;;;;;;1048612;28;4053;-69
2022/04/05 01:18:10;;;;;;;;;;;;;;;;;;1045952;28;2664;-68
2022/04/05 01:18:40;;;;;;;;;;;;;;;;;;1043670;28;6090;-68
2022/04/05 01:19:10;;;;;;;;;;;;;;;;;;1044367;28;2778;-69
2022/04/05 01:19:41;;;;;;;;;;;;;;;;;;1045099;28;3925;-67
2022/04/05 01:20:11;;;;;;;;;;;;;;;;;;1048374;28;2847;-68
2022/04/05 01:20:43;;;;;;;;;;;;;;;;;;1050415;28;3963;-68
2022/04/05 01:21:14;;;;;;;;;;;;;;;;;;1049763;28;2356;-67
2022/04/05 01:21:44;;;;;;;;;;;;;;;;;;1048665;28;4003;-68
2022/04/05 01:22:15;;;;;;;;;;;;;;;;;;1047932;28;2450;-69
2022/04/05 01:22:49;;;;;;;;;;;;;;;;;;1050557;28;4343;-70
2022/04/05 01:23:23;;;;;;;;;;;;;;;;;;1049489;28;2056;-69
2022/04/05 01:24:09;;;;;;;;;;;;;;;;;;1050392;28;4248;-69
2022/04/05 01:24:39;;;;;;;;;;;;;;;;;;1050157;28;3868;-67
2022/04/05 01:25:12;;;;;;;;;;;;;;;;;;1047814;28;2911;-67
2022/04/05 01:25:43;;;;;;;;;;;;;;;;;;1049417;28;3897;-69
2022/04/05 01:26:13;;;;;;;;;;;;;;;;;;1049845;28;1694;-70
2022/04/05 01:26:45;;;;;;;;;;;;;;;;;;1048206;28;3820;-69
2022/04/05 01:27:19;;;;;;;;;;;;;;;;;;1049192;28;2946;-67
2022/04/05 01:27:50;;;;;;;;;;;;;;;;;;1047981;28;4387;-68
2022/04/05 01:28:20;;;;;;;;;;;;;;;;;;1050590;28;3003;-69
2022/04/05 01:28:51;;;;;;;;;;;;;;;;;;1048403;28;3822;-69
2022/04/05 01:29:22;;;;;;;;;;;;;;;;;;1049129;28;2949;-69
2022/04/05 01:29:52;;;;;;;;;;;;;;;;;;1049657;28;3781;-70
2022/04/05 01:30:23;;;;;;;;;;;;;;;;;;1049431;28;2394;-67
2022/04/05 01:30:53;;;;;;;;;;;;;;;;;;1047315;28;3793;-68
2022/04/05 01:31:23;;;;;;;;;;;;;;;;;;1047225;28;2935;-69
2022/04/05 01:31:58;;;;;;;;;;;;;;;;;;1044745;28;3808;-70
2022/04/05 01:32:29;;;;;;;;;;;;;;;;;;1045308;28;1824;-69
2022/04/05 01:33:00;;;;;;;;;;;;;;;;;;1048217;28;3778;-68
2022/04/05 01:33:30;;;;;;;;;;;;;;;;;;1049483;28;1411;-68
2022/04/05 01:34:00;;;;;;;;;;;;;;;;;;1049118;28;3983;-69
2022/04/05 01:34:32;;;;;;;;;;;;;;;;;;1048908;28;2548;-69
2022/04/05 01:35:03;;;;;;;;;;;;;;;;;;1049707;28;4307;-68
2022/04/05 01:35:34;;;;;;;;;;;;;;;;;;1048980;28;2666;-69
2022/04/05 01:36:05;;;;;;;;;;;;;;;;;;1049169;28;3889;-69
2022/04/05 01:36:41;;;;;;;;;;;;;;;;;;1049103;28;2432;-68
2022/04/05 01:37:12;;;;;;;;;;;;;;;;;;1047443;28;3706;-69
2022/04/05 01:37:43;;;;;;;;;;;;;;;;;;1049596;28;3845;-68
2022/04/05 01:38:13;;;;;;;;;;;;;;;;;;1049238;28;2464;-69
2022/04/05 01:38:43;;;;;;;;;;;;;;;;;;1049964;28;3817;-69
2022/04/05 01:39:17;;;;;;;;;;;;;;;;;;1049146;28;3008;-69
2022/04/05 01:39:47;;;;;;;;;;;;;;;;;;1049814;28;3904;-68
2022/04/05 01:40:17;;;;;;;;;;;;;;;;;;1049052;28;2849;-67
2022/04/05 01:40:50;;;;;;;;;;;;;;;;;;1049216;28;3878;-66
2022/04/05 01:41:20;;;;;;;;;;;;;;;;;;1049229;28;2119;-67
2022/04/05 01:41:52;;;;;;;;;;;;;;;;;;1047655;28;3879;-68
2022/04/05 01:42:22;;;;;;;;;;;;;;;;;;1048443;28;2852;-69
2022/04/05 01:42:53;;;;;;;;;;;;;;;;;;1049549;28;3908;-69
2022/04/05 01:43:23;;;;;;;;;;;;;;;;;;1048796;28;3072;-69
2022/04/05 01:43:53;;;;;;;;;;;;;;;;;;1048825;28;3825;-68
2022/04/05 01:44:24;;;;;;;;;;;;;;;;;;1049400;28;2522;-68
2022/04/05 01:44:54;;;;;;;;;;;;;;;;;;1045928;28;3944;-68
2022/04/05 01:45:24;;;;;;;;;;;;;;;;;;1048828;28;2404;-67
2022/04/05 01:45:54;;;;;;;;;;;;;;;;;;1047777;28;3801;-69
2022/04/05 01:46:25;;;;;;;;;;;;;;;;;;1050456;28;2573;-68
2022/04/05 01:46:56;;;;;;;;;;;;;;;;;;1048902;28;3889;-69
2022/04/05 01:47:26;;;;;;;;;;;;;;;;;;1048078;28;2486;-68
2022/04/05 01:47:56;;;;;;;;;;;;;;;;;;1050743;28;3955;-69
2022/04/05 01:48:27;;;;;;;;;;;;;;;;;;1053144;28;2872;-67
2022/04/05 01:48:57;;;;;;;;;;;;;;;;;;1050893;28;3809;-67
2022/04/05 01:49:27;;;;;;;;;;;;;;;;;;1053119;28;2415;-68
2022/04/05 01:49:58;;;;;;;;;;;;;;;;;;1049135;28;3857;-68
2022/04/05 01:50:28;;;;;;;;;;;;;;;;;;1048476;28;2568;-68
2022/04/05 01:50:58;;;;;;;;;;;;;;;;;;1048788;28;3848;-70
2022/04/05 01:51:35;;;;;;;;;;;;;;;;;;1050170;28;2482;-67
2022/04/05 01:52:06;;;;;;;;;;;;;;;;;;1048216;28;3846;-68
2022/04/05 01:52:36;;;;;;;;;;;;;;;;;;1049845;28;2209;-68
2022/04/05 01:53:06;;;;;;;;;;;;;;;;;;1048771;28;3741;-68
2022/04/05 01:53:37;;;;;;;;;;;;;;;;;;1049510;28;2096;-67
2022/04/05 01:54:09;;;;;;;;;;;;;;;;;;1045548;28;3773;-67
2022/04/05 01:54:39;;;;;;;;;;;;;;;;;;1049701;28;3806;-66
2022/04/05 01:55:10;;;;;;;;;;;;;;;;;;1047861;28;1990;-65
2022/04/05 01:55:40;;;;;;;;;;;;;;;;;;1048817;28;3939;-67
2022/04/05 01:56:10;;;;;;;;;;;;;;;;;;1050462;28;1406;-66
2022/04/05 01:56:40;;;;;;;;;;;;;;;;;;1049679;28;3901;-68
2022/04/05 01:57:11;;;;;;;;;;;;;;;;;;1047463;28;2649;-68
2022/04/05 01:57:41;;;;;;;;;;;;;;;;;;1047891;28;3846;-66
2022/04/05 01:58:12;;;;;;;;;;;;;;;;;;1049621;28;2575;-67
2022/04/05 01:58:42;;;;;;;;;;;;;;;;;;1049584;28;3831;-66
2022/04/05 01:59:13;;;;;;;;;;;;;;;;;;1048676;28;3048;-67
2022/04/05 01:59:44;;;;;;;;;;;;;;;;;;1047279;28;3825;-67
2022/04/05 02:00:14;;;;;;;;;;;;;;;;;;1048893;28;2488;-64
2022/04/05 02:00:45;;;;;;;;;;;;;;;;;;1049678;28;3838;-67
2022/04/05 02:01:15;;;;;;;;;;;;;;;;;;1047373;28;2456;-68
2022/04/05 02:01:46;;;;;;;;;;;;;;;;;;1050711;28;3877;-66
2022/04/05 02:02:16;;;;;;;;;;;;;;;;;;1047103;28;2427;-66
2022/04/05 02:02:46;;;;;;;;;;;;;;;;;;1049109;28;3877;-66
2022/04/05 02:03:17;;;;;;;;;;;;;;;;;;1050297;28;1811;-66
2022/04/05 02:03:48;;;;;;;;;;;;;;;;;;1049955;28;3889;-66
2022/04/05 02:04:19;;;;;;;;;;;;;;;;;;1048995;28;3067;-69
2022/04/05 02:04:49;;;;;;;;;;;;;;;;;;1049664;28;3822;-66
2022/04/05 02:05:19;;;;;;;;;;;;;;;;;;1049095;28;2518;-67
2022/04/05 02:05:49;;;;;;;;;;;;;;;;;;1048895;28;3818;-68
2022/04/05 02:06:20;;;;;;;;;;;;;;;;;;1049759;28;2369;-66
2022/04/05 02:06:50;;;;;;;;;;;;;;;;;;1046588;28;3834;-65
2022/04/05 02:07:20;;;;;;;;;;;;;;;;;;1049296;28;2205;-66
2022/04/05 02:07:50;;;;;;;;;;;;;;;;;;1048366;28;3823;-67
2022/04/05 02:08:21;;;;;;;;;;;;;;;;;;1048037;28;2475;-68
2022/04/05 02:08:51;;;;;;;;;;;;;;;;;;1047405;28;3890;-68
2022/04/05 02:09:21;;;;;;;;;;;;;;;;;;1049431;28;2437;-68
2022/04/05 02:09:58;;;;;;;;;;;;;;;;;;1048876;28;3817;-66
2022/04/05 02:10:34;;;;;;;;;;;;;;;;;;1052573;28;2408;-67
2022/04/05 02:11:13;;;;;;;;;;;;;;;;;;1047689;28;3822;-67
2022/04/05 02:11:44;;;;;;;;;;;;;;;;;;1048506;28;4122;-67
2022/04/05 02:12:16;;;;;;;;;;;;;;;;;;1047678;28;2568;-66
2022/04/05 02:12:46;;;;;;;;;;;;;;;;;;1050077;28;4087;-69
2022/04/05 02:13:16;;;;;;;;;;;;;;;;;;1053738;28;2498;-68
2022/04/05 02:13:46;;;;;;;;;;;;;;;;;;1051758;28;3818;-67
2022/04/05 02:14:17;;;;;;;;;;;;;;;;;;1052255;28;2537;-67
2022/04/05 02:14:47;;;;;;;;;;;;;;;;;;1052223;28;3893;-67
2022/04/05 02:15:17;;;;;;;;;;;;;;;;;;1053776;28;2096;-67
2022/04/05 02:15:47;;;;;;;;;;;;;;;;;;1048952;28;3810;-67
2022/04/05 02:16:18;;;;;;;;;;;;;;;;;;1048553;28;2744;-67
2022/04/05 02:16:48;;;;;;;;;;;;;;;;;;1049142;28;3797;-67
2022/04/05 02:17:18;;;;;;;;;;;;;;;;;;1046574;28;2350;-67
2022/04/05 02:17:48;;;;;;;;;;;;;;;;;;1052866;28;3879;-67
2022/04/05 02:18:19;;;;;;;;;;;;;;;;;;1048192;28;2589;-67
2022/04/05 02:18:49;;;;;;;;;;;;;;;;;;1048894;28;3816;-67
2022/04/05 02:19:19;;;;;;;;;;;;;;;;;;1048995;28;2509;-67
2022/04/05 02:19:49;;;;;;;;;;;;;;;;;;1047905;28;3832;-67
2022/04/05 02:20:20;;;;;;;;;;;;;;;;;;1054031;28;2358;-68
2022/04/05 02:20:51;;;;;;;;;;;;;;;;;;1048666;28;3828;-66
2022/04/05 02:21:22;;;;;;;;;;;;;;;;;;1050107;28;1738;-67
2022/04/05 02:21:52;;;;;;;;;;;;;;;;;;1047686;28;3800;-68
2022/04/05 02:22:23;;;;;;;;;;;;;;;;;;1050138;28;2540;-67
2022/04/05 02:22:53;;;;;;;;;;;;;;;;;;1053873;28;3813;-64
2022/04/05 02:23:23;;;;;;;;;;;;;;;;;;1053260;28;2731;-67
2022/04/05 02:23:54;;;;;;;;;;;;;;;;;;1051942;28;3881;-66
2022/04/05 02:24:24;;;;;;;;;;;;;;;;;;1049039;28;2044;-66
2022/04/05 02:24:54;;;;;;;;;;;;;;;;;;1045185;28;3891;-67
2022/04/05 02:25:26;;;;;;;;;;;;;;;;;;1043997;28;2526;-68
2022/04/05 02:25:56;;;;;;;;;;;;;;;;;;1042044;28;3795;-67
2022/04/05 02:26:26;;;;;;;;;;;;;;;;;;1045279;28;2616;-68
2022/04/05 02:26:56;;;;;;;;;;;;;;;;;;1047605;28;3819;-67
2022/04/05 02:27:27;;;;;;;;;;;;;;;;;;1051514;28;2565;-65
2022/04/05 02:27:57;;;;;;;;;;;;;;;;;;1053140;28;3773;-67
2022/04/05 02:28:28;;;;;;;;;;;;;;;;;;1053432;28;2630;-67
2022/04/05 02:28:59;;;;;;;;;;;;;;;;;;1052537;28;4021;-68
2022/04/05 02:29:29;;;;;;;;;;;;;;;;;;1053195;28;2152;-69
2022/04/05 02:29:59;;;;;;;;;;;;;;;;;;1053761;28;3781;-67
2022/04/05 02:30:30;;;;;;;;;;;;;;;;;;1052100;28;2506;-66
2022/04/05 02:31:01;;;;;;;;;;;;;;;;;;1049146;28;3883;-67
2022/04/05 02:31:31;;;;;;;;;;;;;;;;;;1050252;28;2032;-67
2022/04/05 02:32:01;;;;;;;;;;;;;;;;;;1047346;28;3819;-67
2022/04/05 02:32:32;;;;;;;;;;;;;;;;;;1047785;28;2512;-67
2022/04/05 02:33:02;;;;;;;;;;;;;;;;;;1052036;28;3857;-69
2022/04/05 02:33:32;;;;;;;;;;;;;;;;;;1053235;28;2382;-67
2022/04/05 02:34:03;;;;;;;;;;;;;;;;;;1053167;28;3966;-65
2022/04/05 02:34:33;;;;;;;;;;;;;;;;;;1053810;28;2327;-67
2022/04/05 02:35:03;;;;;;;;;;;;;;;;;;1053721;28;3805;-68
2022/04/05 02:35:34;;;;;;;;;;;;;;;;;;1054607;28;1647;-67
2022/04/05 02:36:04;;;;;;;;;;;;;;;;;;1052792;28;3773;-69
2022/04/05 02:36:35;;;;;;;;;;;;;;;;;;1051583;28;2973;-66
2022/04/05 02:37:05;;;;;;;;;;;;;;;;;;1052024;28;3793;-65
2022/04/05 02:37:35;;;;;;;;;;;;;;;;;;1050063;28;2706;-67
2022/04/05 02:38:06;;;;;;;;;;;;;;;;;;1049832;28;3776;-67
2022/04/05 02:38:36;;;;;;;;;;;;;;;;;;1049965;28;2406;-65
2022/04/05 02:39:07;;;;;;;;;;;;;;;;;;1049622;28;3791;-67
2022/04/05 02:39:38;;;;;;;;;;;;;;;;;;1054138;28;1318;-65
2022/04/05 02:40:08;;;;;;;;;;;;;;;;;;1053192;28;4061;-66
2022/04/05 02:40:38;;;;;;;;;;;;;;;;;;1054233;27;3893;-67
2022/04/05 02:41:09;;;;;;;;;;;;;;;;;;1053734;28;1788;-67
2022/04/05 02:41:39;;;;;;;;;;;;;;;;;;1054573;28;3877;-67
2022/04/05 02:42:09;;;;;;;;;;;;;;;;;;1051124;28;2589;-69
2022/04/05 02:42:40;;;;;;;;;;;;;;;;;;1052144;28;3817;-66
2022/04/05 02:43:10;;;;;;;;;;;;;;;;;;1054456;28;1293;-66
2022/04/05 02:43:40;;;;;;;;;;;;;;;;;;1052297;28;3926;-67
2022/04/05 02:44:10;;;;;;;;;;;;;;;;;;1052182;28;2433;-66
2022/04/05 02:44:42;;;;;;;;;;;;;;;;;;1051573;28;3940;-67
2022/04/05 02:45:12;;;;;;;;;;;;;;;;;;1052730;28;2665;-67
2022/04/05 02:45:42;;;;;;;;;;;;;;;;;;1051728;28;3803;-67
2022/04/05 02:46:13;;;;;;;;;;;;;;;;;;1051900;28;2300;-65
2022/04/05 02:46:43;;;;;;;;;;;;;;;;;;1050691;28;3845;-67
2022/04/05 02:47:15;;;;;;;;;;;;;;;;;;1053982;28;2167;-69
2022/04/05 02:47:45;;;;;;;;;;;;;;;;;;1053897;28;3975;-65
2022/04/05 02:48:16;;;;;;;;;;;;;;;;;;1051807;28;3042;-67
2022/04/05 02:48:46;;;;;;;;;;;;;;;;;;1048719;28;3825;-67
2022/04/05 02:49:16;;;;;;;;;;;;;;;;;;1045388;28;3372;-68
2022/04/05 02:49:47;;;;;;;;;;;;;;;;;;1044082;28;3987;-67
2022/04/05 02:50:24;;;;;;;;;;;;;;;;;;1046529;28;3016;-68
2022/04/05 02:50:54;;;;;;;;;;;;;;;;;;1049387;28;3804;-69
2022/04/05 02:51:24;;;;;;;;;;;;;;;;;;1050083;28;1535;-67
2022/04/05 02:51:55;;;;;;;;;;;;;;;;;;1044587;28;3825;-68
2022/04/05 02:52:25;;;;;;;;;;;;;;;;;;1045193;28;2414;-67
2022/04/05 02:52:55;;;;;;;;;;;;;;;;;;1043884;28;3805;-67
2022/04/05 02:53:25;;;;;;;;;;;;;;;;;;1048967;28;2519;-68
2022/04/05 02:53:56;;;;;;;;;;;;;;;;;;1052417;28;3901;-67
2022/04/05 02:54:26;;;;;;;;;;;;;;;;;;1053750;28;2248;-67
2022/04/05 02:54:56;;;;;;;;;;;;;;;;;;1051753;28;3916;-67
2022/04/05 02:55:26;;;;;;;;;;;;;;;;;;1049161;28;2755;-66
2022/04/05 02:55:57;;;;;;;;;;;;;;;;;;1049153;28;4001;-68
2022/04/05 02:56:27;;;;;;;;;;;;;;;;;;1051342;28;2888;-69
2022/04/05 02:56:57;;;;;;;;;;;;;;;;;;1048551;28;3778;-67
2022/04/05 02:57:28;;;;;;;;;;;;;;;;;;1053529;28;2917;-66
2022/04/05 02:57:58;;;;;;;;;;;;;;;;;;1052326;28;3781;-68
2022/04/05 02:58:28;;;;;;;;;;;;;;;;;;1053773;28;2037;-67
2022/04/05 02:58:58;;;;;;;;;;;;;;;;;;1049879;28;4212;-67
2022/04/05 02:59:29;;;;;;;;;;;;;;;;;;1050839;28;2535;-65
2022/04/05 02:59:59;;;;;;;;;;;;;;;;;;1048506;28;3761;-67
2022/04/05 03:00:29;;;;;;;;;;;;;;;;;;1050424;28;2306;-67
2022/04/05 03:01:00;;;;;;;;;;;;;;;;;;1052528;28;3881;-66
2022/04/05 03:01:30;;;;;;;;;;;;;;;;;;1052960;28;2654;-66
2022/04/05 03:02:00;;;;;;;;;;;;;;;;;;1052274;28;3841;-66
2022/04/05 03:02:30;;;;;;;;;;;;;;;;;;1053289;28;2252;-66
2022/04/05 03:03:01;;;;;;;;;;;;;;;;;;1051974;28;3793;-67
2022/04/05 03:03:32;;;;;;;;;;;;;;;;;;1049411;28;2852;-68
2022/04/05 03:04:03;;;;;;;;;;;;;;;;;;1048500;28;3898;-67
2022/04/05 03:04:36;;;;;;;;;;;;;;;;;;1051986;28;2412;-67
2022/04/05 03:05:06;;;;;;;;;;;;;;;;;;1044652;28;3734;-67
2022/04/05 03:05:37;;;;;;;;;;;;;;;;;;1050726;28;2003;-69
2022/04/05 03:06:07;;;;;;;;;;;;;;;;;;1048333;28;3765;-66
2022/04/05 03:06:37;;;;;;;;;;;;;;;;;;1048644;28;2058;-67
2022/04/05 03:07:07;;;;;;;;;;;;;;;;;;1052619;28;3760;-68
2022/04/05 03:07:38;;;;;;;;;;;;;;;;;;1053286;28;2738;-66
2022/04/05 03:08:08;;;;;;;;;;;;;;;;;;1053259;28;3814;-67
2022/04/05 03:08:39;;;;;;;;;;;;;;;;;;1054375;28;3991;-68
2022/04/05 03:09:09;;;;;;;;;;;;;;;;;;1053907;28;1365;-66
2022/04/05 03:09:39;;;;;;;;;;;;;;;;;;1054228;28;3810;-67
2022/04/05 03:10:16;;;;;;;;;;;;;;;;;;1051985;28;2389;-66
2022/04/05 03:10:54;;;;;;;;;;;;;;;;;;1054132;28;3797;-69
2022/04/05 03:11:31;;;;;;;;;;;;;;;;;;1053676;28;1366;-67
2022/04/05 03:12:01;;;;;;;;;;;;;;;;;;1050639;28;3818;-65
2022/04/05 03:12:31;;;;;;;;;;;;;;;;;;1052990;28;2217;-67
2022/04/05 03:13:08;;;;;;;;;;;;;;;;;;1052685;28;3632;-67
2022/04/05 03:13:39;;;;;;;;;;;;;;;;;;1052866;28;3848;-66
2022/04/05 03:14:12;;;;;;;;;;;;;;;;;;1051625;28;2822;-67
2022/04/05 03:14:42;;;;;;;;;;;;;;;;;;1053533;28;3953;-68
2022/04/05 03:15:13;;;;;;;;;;;;;;;;;;1052506;28;2795;-66
2022/04/05 03:15:43;;;;;;;;;;;;;;;;;;1052689;28;3814;-67
2022/04/05 03:16:13;;;;;;;;;;;;;;;;;;1051843;28;2516;-65
2022/04/05 03:16:43;;;;;;;;;;;;;;;;;;1052077;28;3778;-67
2022/04/05 03:17:14;;;;;;;;;;;;;;;;;;1053037;28;1617;-67
2022/04/05 03:17:45;;;;;;;;;;;;;;;;;;1051196;28;3830;-67
2022/04/05 03:18:15;;;;;;;;;;;;;;;;;;1047829;28;2601;-67
2022/04/05 03:18:50;;;;;;;;;;;;;;;;;;1048332;28;3889;-69
2022/04/05 03:19:20;;;;;;;;;;;;;;;;;;1048806;28;1968;-66
2022/04/05 03:19:50;;;;;;;;;;;;;;;;;;1048962;28;3808;-66
2022/04/05 03:20:21;;;;;;;;;;;;;;;;;;1048795;28;2892;-69
2022/04/05 03:20:52;;;;;;;;;;;;;;;;;;1049490;28;3841;-66
2022/04/05 03:21:22;;;;;;;;;;;;;;;;;;1051151;28;1903;-67
2022/04/05 03:21:52;;;;;;;;;;;;;;;;;;1049719;28;3869;-66
2022/04/05 03:22:23;;;;;;;;;;;;;;;;;;1051699;28;2311;-67
2022/04/05 03:22:55;;;;;;;;;;;;;;;;;;1051891;28;3801;-68
2022/04/05 03:23:26;;;;;;;;;;;;;;;;;;1053079;28;3340;-68
2022/04/05 03:23:57;;;;;;;;;;;;;;;;;;1052237;28;3796;-68
2022/04/05 03:24:27;;;;;;;;;;;;;;;;;;1054948;28;1929;-67
2022/04/05 03:24:57;;;;;;;;;;;;;;;;;;1052605;28;3854;-67
2022/04/05 03:25:27;;;;;;;;;;;;;;;;;;1054073;28;2388;-67
2022/04/05 03:25:58;;;;;;;;;;;;;;;;;;1053469;28;3814;-68
2022/04/05 03:26:28;;;;;;;;;;;;;;;;;;1054395;28;1969;-68
2022/04/05 03:26:58;;;;;;;;;;;;;;;;;;1051212;28;3835;-67
2022/04/05 03:27:28;;;;;;;;;;;;;;;;;;1052004;28;2711;-67
2022/04/05 03:27:59;;;;;;;;;;;;;;;;;;1052209;28;3855;-67
2022/04/05 03:28:29;;;;;;;;;;;;;;;;;;1052233;28;2635;-66
2022/04/05 03:29:00;;;;;;;;;;;;;;;;;;1054212;28;3900;-68
2022/04/05 03:29:30;;;;;;;;;;;;;;;;;;1053377;28;2553;-67
2022/04/05 03:30:00;;;;;;;;;;;;;;;;;;1053468;28;3937;-67
2022/04/05 03:30:31;;;;;;;;;;;;;;;;;;1051792;28;2647;-69
2022/04/05 03:31:02;;;;;;;;;;;;;;;;;;1052173;28;3894;-67
2022/04/05 03:31:32;;;;;;;;;;;;;;;;;;1052582;28;2499;-68
2022/04/05 03:32:02;;;;;;;;;;;;;;;;;;1053239;28;4223;-67
2022/04/05 03:32:32;;;;;;;;;;;;;;;;;;1053211;28;2380;-66
2022/04/05 03:33:03;;;;;;;;;;;;;;;;;;1053914;28;3786;-65
2022/04/05 03:33:33;;;;;;;;;;;;;;;;;;1051606;28;2658;-67
2022/04/05 03:34:03;;;;;;;;;;;;;;;;;;1052407;28;3744;-68
2022/04/05 03:34:33;;;;;;;;;;;;;;;;;;1052099;28;2602;-66
2022/04/05 03:35:04;;;;;;;;;;;;;;;;;;1052106;28;3857;-68
2022/04/05 03:35:35;;;;;;;;;;;;;;;;;;1053646;28;1664;-64
2022/04/05 03:36:05;;;;;;;;;;;;;;;;;;1052700;28;3731;-66